Port Chicago, California
Current Conditions -  °F | °C
As of 1:53 AM on Thursday 29 Jan 2015 (Local Time) from KCCR Reporting Station
Clear Clear  
Wind Chill: 45°   Ceiling: Unl
Heat Index: 47°   Visibility: 9mi
Dew Point: 43°   Wind: 5mph
Humidity: 86%   Direction: 170°S
Pressure: 30.17"   Gusts: NA
Location:  38.0121°N, 121.92°W
Report Text: KCCR 290953Z 17004KT 9SM CLR 08/06 A3017 RMK AO2 SLP202 T00830061
Loading
Personal Weather Stations






























Interactive Weather Map New forecast layout! Learn more

10-Day Weather Forecast

Advertisements
Track Severe Weather on mobile